Alfordsville, Indiana
Current Conditions -  °F | °C
As of 6:15 PM on Wednesday 28 Jan 2015 (Local Time) from KDCY Reporting Station
Clear Clear  
Wind Chill: -3°   Ceiling: Unl
Heat Index:   Visibility: 10mi
Dew Point: -7°   Wind: 10mph
Humidity: 54%   Direction: 140°SE
Pressure: 30.13"   Gusts: NA
Location:  38.6074°N, 86.9234°W
Report Text: KDCY 290015Z AUTO 14009KT 10SM CLR 02/M07 A3013 RMK AO2 T00161068
Loading
Personal Weather Stations






























Interactive Weather Map New forecast layout! Learn more

10-Day Weather Forecast

Advertisements
Track Severe Weather on mobile